sensor_id;sensor_type;location;lat;lon;timestamp;P1;durP1;ratioP1;P2;durP2;ratioP2
43994;SDS011;51687;52.160;5.298;2023-04-24T00:01:15;0.80;;;0.47;;
43994;SDS011;51687;52.160;5.298;2023-04-24T00:03:43;0.57;;;0.57;;
43994;SDS011;51687;52.160;5.298;2023-04-24T00:06:10;1.48;;;0.55;;
43994;SDS011;51687;52.160;5.298;2023-04-24T00:08:37;0.50;;;0.50;;
43994;SDS011;51687;52.160;5.298;2023-04-24T00:11:04;0.88;;;0.60;;
43994;SDS011;51687;52.160;5.298;2023-04-24T00:13:31;1.25;;;0.70;;
43994;SDS011;51687;52.160;5.298;2023-04-24T00:15:58;1.42;;;0.77;;
43994;SDS011;51687;52.160;5.298;2023-04-24T00:18:25;1.38;;;0.95;;
43994;SDS011;51687;52.160;5.298;2023-04-24T00:20:52;1.67;;;0.90;;
43994;SDS011;51687;52.160;5.298;2023-04-24T00:23:20;0.90;;;0.80;;
43994;SDS011;51687;52.160;5.298;2023-04-24T00:25:47;0.57;;;0.55;;
43994;SDS011;51687;52.160;5.298;2023-04-24T00:28:13;1.02;;;0.45;;
43994;SDS011;51687;52.160;5.298;2023-04-24T00:30:41;0.80;;;0.30;;
43994;SDS011;51687;52.160;5.298;2023-04-24T00:33:08;0.82;;;0.50;;
43994;SDS011;51687;52.160;5.298;2023-04-24T00:35:35;0.60;;;0.40;;
43994;SDS011;51687;52.160;5.298;2023-04-24T00:38:02;1.02;;;0.70;;
43994;SDS011;51687;52.160;5.298;2023-04-24T00:40:30;1.63;;;0.50;;
43994;SDS011;51687;52.160;5.298;2023-04-24T00:42:57;1.20;;;0.50;;
43994;SDS011;51687;52.160;5.298;2023-04-24T00:45:24;0.40;;;0.40;;
43994;SDS011;51687;52.160;5.298;2023-04-24T00:47:52;0.50;;;0.47;;
43994;SDS011;51687;52.160;5.298;2023-04-24T00:50:20;0.93;;;0.40;;
43994;SDS011;51687;52.160;5.298;2023-04-24T00:52:47;1.52;;;0.50;;
43994;SDS011;51687;52.160;5.298;2023-04-24T00:55:14;0.45;;;0.45;;
43994;SDS011;51687;52.160;5.298;2023-04-24T00:57:42;0.55;;;0.55;;
43994;SDS011;51687;52.160;5.298;2023-04-24T01:00:10;1.33;;;0.60;;
43994;SDS011;51687;52.160;5.298;2023-04-24T01:02:41;1.20;;;0.65;;
43994;SDS011;51687;52.160;5.298;2023-04-24T01:05:12;0.85;;;0.52;;
43994;SDS011;51687;52.160;5.298;2023-04-24T01:07:40;0.57;;;0.47;;
43994;SDS011;51687;52.160;5.298;2023-04-24T01:10:13;0.50;;;0.50;;
43994;SDS011;51687;52.160;5.298;2023-04-24T01:12:40;1.45;;;0.70;;
43994;SDS011;51687;52.160;5.298;2023-04-24T01:15:07;0.70;;;0.70;;
43994;SDS011;51687;52.160;5.298;2023-04-24T01:17:34;0.75;;;0.75;;
43994;SDS011;51687;52.160;5.298;2023-04-24T01:20:02;0.60;;;0.60;;
43994;SDS011;51687;52.160;5.298;2023-04-24T01:22:33;0.85;;;0.80;;
43994;SDS011;51687;52.160;5.298;2023-04-24T01:25:00;0.88;;;0.88;;
43994;SDS011;51687;52.160;5.298;2023-04-24T01:27:28;1.50;;;0.98;;
43994;SDS011;51687;52.160;5.298;2023-04-24T01:29:54;1.83;;;1.40;;
43994;SDS011;51687;52.160;5.298;2023-04-24T01:32:21;1.50;;;1.40;;
43994;SDS011;51687;52.160;5.298;2023-04-24T01:34:48;1.75;;;1.63;;
43994;SDS011;51687;52.160;5.298;2023-04-24T01:37:16;2.92;;;1.60;;
43994;SDS011;51687;52.160;5.298;2023-04-24T01:39:43;2.38;;;2.00;;
43994;SDS011;51687;52.160;5.298;2023-04-24T01:42:10;4.38;;;2.33;;
43994;SDS011;51687;52.160;5.298;2023-04-24T01:44:38;3.10;;;2.90;;
43994;SDS011;51687;52.160;5.298;2023-04-24T01:47:06;2.83;;;2.60;;
43994;SDS011;51687;52.160;5.298;2023-04-24T01:49:33;3.55;;;3.35;;
43994;SDS011;51687;52.160;5.298;2023-04-24T01:52:00;3.58;;;3.28;;
43994;SDS011;51687;52.160;5.298;2023-04-24T01:54:27;3.13;;;2.90;;
43994;SDS011;51687;52.160;5.298;2023-04-24T01:56:53;2.97;;;2.78;;
43994;SDS011;51687;52.160;5.298;2023-04-24T01:59:20;4.05;;;3.30;;
43994;SDS011;51687;52.160;5.298;2023-04-24T02:01:50;3.67;;;3.38;;
43994;SDS011;51687;52.160;5.298;2023-04-24T02:04:17;4.03;;;3.67;;
43994;SDS011;51687;52.160;5.298;2023-04-24T02:06:44;4.03;;;3.63;;
43994;SDS011;51687;52.160;5.298;2023-04-24T02:09:10;4.47;;;3.55;;
43994;SDS011;51687;52.160;5.298;2023-04-24T02:11:37;3.67;;;3.38;;
43994;SDS011;51687;52.160;5.298;2023-04-24T02:14:04;4.28;;;3.88;;
43994;SDS011;51687;52.160;5.298;2023-04-24T02:16:31;4.00;;;3.70;;
43994;SDS011;51687;52.160;5.298;2023-04-24T02:18:59;4.90;;;4.50;;
43994;SDS011;51687;52.160;5.298;2023-04-24T02:21:26;4.85;;;4.45;;
43994;SDS011;51687;52.160;5.298;2023-04-24T02:23:53;4.90;;;4.60;;
43994;SDS011;51687;52.160;5.298;2023-04-24T02:26:20;5.03;;;4.63;;
43994;SDS011;51687;52.160;5.298;2023-04-24T02:28:47;4.53;;;4.20;;
43994;SDS011;51687;52.160;5.298;2023-04-24T02:31:14;5.00;;;4.60;;
43994;SDS011;51687;52.160;5.298;2023-04-24T02:33:40;4.25;;;3.85;;
43994;SDS011;51687;52.160;5.298;2023-04-24T02:36:07;3.67;;;3.40;;
43994;SDS011;51687;52.160;5.298;2023-04-24T02:38:34;3.55;;;2.88;;
43994;SDS011;51687;52.160;5.298;2023-04-24T02:41:01;2.50;;;2.28;;
43994;SDS011;51687;52.160;5.298;2023-04-24T02:43:28;2.05;;;1.92;;
43994;SDS011;51687;52.160;5.298;2023-04-24T02:45:55;2.17;;;1.95;;
43994;SDS011;51687;52.160;5.298;2023-04-24T02:48:21;1.95;;;1.77;;
43994;SDS011;51687;52.160;5.298;2023-04-24T02:50:48;1.92;;;1.75;;
43994;SDS011;51687;52.160;5.298;2023-04-24T02:53:16;1.55;;;1.20;;
43994;SDS011;51687;52.160;5.298;2023-04-24T02:55:43;1.00;;;0.98;;
43994;SDS011;51687;52.160;5.298;2023-04-24T02:58:10;0.82;;;0.82;;
43994;SDS011;51687;52.160;5.298;2023-04-24T03:00:39;1.20;;;1.00;;
43994;SDS011;51687;52.160;5.298;2023-04-24T03:03:05;1.55;;;1.00;;
43994;SDS011;51687;52.160;5.298;2023-04-24T03:05:33;2.95;;;0.80;;
43994;SDS011;51687;52.160;5.298;2023-04-24T03:08:00;0.80;;;0.80;;
43994;SDS011;51687;52.160;5.298;2023-04-24T03:10:27;1.75;;;1.10;;
43994;SDS011;51687;52.160;5.298;2023-04-24T03:12:53;1.17;;;0.70;;
43994;SDS011;51687;52.160;5.298;2023-04-24T03:15:21;1.13;;;0.80;;
43994;SDS011;51687;52.160;5.298;2023-04-24T03:17:48;0.85;;;0.85;;
43994;SDS011;51687;52.160;5.298;2023-04-24T03:20:15;0.65;;;0.65;;
43994;SDS011;51687;52.160;5.298;2023-04-24T03:22:43;1.25;;;0.70;;
43994;SDS011;51687;52.160;5.298;2023-04-24T03:25:10;0.70;;;0.70;;
43994;SDS011;51687;52.160;5.298;2023-04-24T03:27:36;1.50;;;0.80;;
43994;SDS011;51687;52.160;5.298;2023-04-24T03:30:03;1.23;;;0.80;;
43994;SDS011;51687;52.160;5.298;2023-04-24T03:32:31;3.25;;;1.17;;
43994;SDS011;51687;52.160;5.298;2023-04-24T03:34:58;3.60;;;0.88;;
43994;SDS011;51687;52.160;5.298;2023-04-24T03:37:25;1.08;;;1.00;;
43994;SDS011;51687;52.160;5.298;2023-04-24T03:39:52;2.78;;;1.00;;
43994;SDS011;51687;52.160;5.298;2023-04-24T03:42:19;1.02;;;0.90;;
43994;SDS011;51687;52.160;5.298;2023-04-24T03:44:46;2.55;;;0.98;;
43994;SDS011;51687;52.160;5.298;2023-04-24T03:47:12;2.03;;;0.90;;
43994;SDS011;51687;52.160;5.298;2023-04-24T03:49:39;1.08;;;0.90;;
43994;SDS011;51687;52.160;5.298;2023-04-24T03:52:06;1.15;;;1.00;;
43994;SDS011;51687;52.160;5.298;2023-04-24T03:54:33;1.40;;;0.90;;
43994;SDS011;51687;52.160;5.298;2023-04-24T03:57:00;1.98;;;1.10;;
43994;SDS011;51687;52.160;5.298;2023-04-24T03:59:29;1.70;;;0.93;;
43994;SDS011;51687;52.160;5.298;2023-04-24T04:01:56;1.35;;;1.20;;
43994;SDS011;51687;52.160;5.298;2023-04-24T04:04:23;0.75;;;0.70;;
43994;SDS011;51687;52.160;5.298;2023-04-24T04:06:50;1.45;;;0.70;;
43994;SDS011;51687;52.160;5.298;2023-04-24T04:09:17;1.48;;;0.75;;
43994;SDS011;51687;52.160;5.298;2023-04-24T04:14:13;1.90;;;0.90;;
43994;SDS011;51687;52.160;5.298;2023-04-24T04:16:40;1.33;;;1.00;;
43994;SDS011;51687;52.160;5.298;2023-04-24T04:19:07;1.77;;;1.10;;
43994;SDS011;51687;52.160;5.298;2023-04-24T04:21:34;1.70;;;0.98;;
43994;SDS011;51687;52.160;5.298;2023-04-24T04:24:00;1.45;;;1.13;;
43994;SDS011;51687;52.160;5.298;2023-04-24T04:26:27;1.40;;;1.30;;
43994;SDS011;51687;52.160;5.298;2023-04-24T04:28:54;2.22;;;1.38;;
43994;SDS011;51687;52.160;5.298;2023-04-24T04:31:21;2.03;;;1.40;;
43994;SDS011;51687;52.160;5.298;2023-04-24T04:33:47;3.28;;;1.27;;
43994;SDS011;51687;52.160;5.298;2023-04-24T04:36:14;1.85;;;1.63;;
43994;SDS011;51687;52.160;5.298;2023-04-24T04:38:43;3.45;;;1.63;;
43994;SDS011;51687;52.160;5.298;2023-04-24T04:41:10;2.08;;;1.40;;
43994;SDS011;51687;52.160;5.298;2023-04-24T04:43:37;1.70;;;1.60;;
43994;SDS011;51687;52.160;5.298;2023-04-24T04:46:06;2.00;;;1.33;;
43994;SDS011;51687;52.160;5.298;2023-04-24T04:48:34;1.70;;;1.60;;
43994;SDS011;51687;52.160;5.298;2023-04-24T04:51:01;2.10;;;1.70;;
43994;SDS011;51687;52.160;5.298;2023-04-24T04:53:28;1.98;;;1.80;;
43994;SDS011;51687;52.160;5.298;2023-04-24T04:55:55;1.85;;;1.60;;
43994;SDS011;51687;52.160;5.298;2023-04-24T04:58:21;2.40;;;2.20;;
43994;SDS011;51687;52.160;5.298;2023-04-24T05:00:48;2.28;;;2.08;;
43994;SDS011;51687;52.160;5.298;2023-04-24T05:03:15;2.72;;;2.05;;
43994;SDS011;51687;52.160;5.298;2023-04-24T05:05:47;2.67;;;2.47;;
43994;SDS011;51687;52.160;5.298;2023-04-24T05:08:13;3.08;;;2.88;;
43994;SDS011;51687;52.160;5.298;2023-04-24T05:10:43;3.15;;;2.95;;
43994;SDS011;51687;52.160;5.298;2023-04-24T05:13:10;3.25;;;2.95;;
43994;SDS011;51687;52.160;5.298;2023-04-24T05:15:39;3.75;;;3.08;;
43994;SDS011;51687;52.160;5.298;2023-04-24T05:18:06;5.68;;;3.30;;
43994;SDS011;51687;52.160;5.298;2023-04-24T05:20:32;4.00;;;3.10;;
43994;SDS011;51687;52.160;5.298;2023-04-24T05:22:59;3.70;;;2.95;;
43994;SDS011;51687;52.160;5.298;2023-04-24T05:25:26;3.55;;;3.28;;
43994;SDS011;51687;52.160;5.298;2023-04-24T05:27:53;3.30;;;3.10;;
43994;SDS011;51687;52.160;5.298;2023-04-24T05:30:20;6.70;;;4.07;;
43994;SDS011;51687;52.160;5.298;2023-04-24T05:32:47;4.43;;;4.03;;
43994;SDS011;51687;52.160;5.298;2023-04-24T05:35:14;4.32;;;3.92;;
43994;SDS011;51687;52.160;5.298;2023-04-24T05:37:40;3.35;;;2.80;;
43994;SDS011;51687;52.160;5.298;2023-04-24T05:40:07;3.03;;;2.72;;
43994;SDS011;51687;52.160;5.298;2023-04-24T05:42:35;5.50;;;2.50;;
43994;SDS011;51687;52.160;5.298;2023-04-24T05:45:02;2.15;;;1.90;;
43994;SDS011;51687;52.160;5.298;2023-04-24T05:47:29;1.42;;;1.33;;
43994;SDS011;51687;52.160;5.298;2023-04-24T05:49:55;1.77;;;1.67;;
43994;SDS011;51687;52.160;5.298;2023-04-24T05:52:22;4.68;;;1.60;;
43994;SDS011;51687;52.160;5.298;2023-04-24T05:54:49;2.35;;;1.20;;
43994;SDS011;51687;52.160;5.298;2023-04-24T05:57:16;2.30;;;1.10;;
43994;SDS011;51687;52.160;5.298;2023-04-24T05:59:43;0.57;;;0.45;;
43994;SDS011;51687;52.160;5.298;2023-04-24T06:02:10;1.17;;;0.60;;
43994;SDS011;51687;52.160;5.298;2023-04-24T06:04:37;1.83;;;0.70;;
43994;SDS011;51687;52.160;5.298;2023-04-24T06:07:04;0.47;;;0.47;;
43994;SDS011;51687;52.160;5.298;2023-04-24T06:09:31;1.50;;;0.60;;
43994;SDS011;51687;52.160;5.298;2023-04-24T06:11:58;1.42;;;0.60;;
43994;SDS011;51687;52.160;5.298;2023-04-24T06:14:26;2.15;;;0.63;;
43994;SDS011;51687;52.160;5.298;2023-04-24T06:16:52;2.53;;;0.80;;
43994;SDS011;51687;52.160;5.298;2023-04-24T06:19:19;1.17;;;0.70;;
43994;SDS011;51687;52.160;5.298;2023-04-24T06:21:46;7.18;;;1.88;;
43994;SDS011;51687;52.160;5.298;2023-04-24T06:24:14;2.75;;;0.80;;
43994;SDS011;51687;52.160;5.298;2023-04-24T06:26:41;2.90;;;0.90;;
43994;SDS011;51687;52.160;5.298;2023-04-24T06:29:08;2.78;;;2.58;;
43994;SDS011;51687;52.160;5.298;2023-04-24T06:31:35;4.30;;;3.78;;
43994;SDS011;51687;52.160;5.298;2023-04-24T06:34:03;6.65;;;5.28;;
43994;SDS011;51687;52.160;5.298;2023-04-24T06:36:30;7.00;;;6.40;;
43994;SDS011;51687;52.160;5.298;2023-04-24T06:38:57;9.23;;;7.95;;
43994;SDS011;51687;52.160;5.298;2023-04-24T06:41:24;9.90;;;9.02;;
43994;SDS011;51687;52.160;5.298;2023-04-24T06:43:51;9.60;;;8.70;;
43994;SDS011;51687;52.160;5.298;2023-04-24T06:46:17;14.98;;;9.75;;
43994;SDS011;51687;52.160;5.298;2023-04-24T06:48:44;12.43;;;10.07;;
43994;SDS011;51687;52.160;5.298;2023-04-24T06:51:11;10.80;;;9.80;;
43994;SDS011;51687;52.160;5.298;2023-04-24T06:53:38;12.88;;;10.82;;
43994;SDS011;51687;52.160;5.298;2023-04-24T06:56:05;12.10;;;11.00;;
43994;SDS011;51687;52.160;5.298;2023-04-24T06:58:32;11.15;;;10.02;;
43994;SDS011;51687;52.160;5.298;2023-04-24T07:00:59;10.85;;;9.80;;
43994;SDS011;51687;52.160;5.298;2023-04-24T07:03:25;11.90;;;9.70;;
43994;SDS011;51687;52.160;5.298;2023-04-24T07:05:53;10.18;;;9.32;;
43994;SDS011;51687;52.160;5.298;2023-04-24T07:08:21;9.88;;;8.88;;
43994;SDS011;51687;52.160;5.298;2023-04-24T07:10:49;9.32;;;8.38;;
43994;SDS011;51687;52.160;5.298;2023-04-24T07:13:16;11.35;;;8.55;;
43994;SDS011;51687;52.160;5.298;2023-04-24T07:15:43;11.25;;;7.85;;
43994;SDS011;51687;52.160;5.298;2023-04-24T07:18:10;11.85;;;8.30;;
43994;SDS011;51687;52.160;5.298;2023-04-24T07:20:37;12.13;;;7.93;;
43994;SDS011;51687;52.160;5.298;2023-04-24T07:23:04;16.02;;;8.07;;
43994;SDS011;51687;52.160;5.298;2023-04-24T07:25:31;10.70;;;6.97;;
43994;SDS011;51687;52.160;5.298;2023-04-24T07:27:58;12.90;;;8.38;;
43994;SDS011;51687;52.160;5.298;2023-04-24T07:30:26;9.45;;;7.55;;
43994;SDS011;51687;52.160;5.298;2023-04-24T07:32:55;9.73;;;7.18;;
43994;SDS011;51687;52.160;5.298;2023-04-24T07:35:23;15.93;;;7.93;;
43994;SDS011;51687;52.160;5.298;2023-04-24T07:37:54;9.85;;;7.38;;
43994;SDS011;51687;52.160;5.298;2023-04-24T07:40:22;9.95;;;7.78;;
43994;SDS011;51687;52.160;5.298;2023-04-24T07:42:50;8.13;;;7.25;;
43994;SDS011;51687;52.160;5.298;2023-04-24T07:45:17;12.65;;;7.60;;
43994;SDS011;51687;52.160;5.298;2023-04-24T07:47:44;10.05;;;7.60;;
43994;SDS011;51687;52.160;5.298;2023-04-24T07:50:12;9.48;;;7.22;;
43994;SDS011;51687;52.160;5.298;2023-04-24T07:52:39;11.93;;;7.88;;
43994;SDS011;51687;52.160;5.298;2023-04-24T07:55:06;13.23;;;8.93;;
43994;SDS011;51687;52.160;5.298;2023-04-24T07:57:34;19.02;;;10.02;;
43994;SDS011;51687;52.160;5.298;2023-04-24T08:00:02;12.73;;;8.55;;
43994;SDS011;51687;52.160;5.298;2023-04-24T08:02:29;14.57;;;8.60;;
43994;SDS011;51687;52.160;5.298;2023-04-24T08:04:57;12.40;;;6.97;;
43994;SDS011;51687;52.160;5.298;2023-04-24T08:07:25;9.50;;;7.10;;
43994;SDS011;51687;52.160;5.298;2023-04-24T08:09:52;11.60;;;7.10;;
43994;SDS011;51687;52.160;5.298;2023-04-24T08:12:20;12.40;;;6.93;;
43994;SDS011;51687;52.160;5.298;2023-04-24T08:14:47;13.13;;;5.85;;
43994;SDS011;51687;52.160;5.298;2023-04-24T08:17:14;9.77;;;4.78;;
43994;SDS011;51687;52.160;5.298;2023-04-24T08:19:42;16.50;;;4.23;;
43994;SDS011;51687;52.160;5.298;2023-04-24T08:22:17;10.85;;;3.60;;
43994;SDS011;51687;52.160;5.298;2023-04-24T08:24:43;12.68;;;3.63;;
43994;SDS011;51687;52.160;5.298;2023-04-24T08:27:10;18.90;;;4.63;;
43994;SDS011;51687;52.160;5.298;2023-04-24T08:29:37;13.40;;;4.25;;
43994;SDS011;51687;52.160;5.298;2023-04-24T08:32:04;16.45;;;3.78;;
43994;SDS011;51687;52.160;5.298;2023-04-24T08:34:32;17.27;;;3.78;;
43994;SDS011;51687;52.160;5.298;2023-04-24T08:36:58;12.88;;;4.00;;
43994;SDS011;51687;52.160;5.298;2023-04-24T08:39:25;21.00;;;3.65;;
43994;SDS011;51687;52.160;5.298;2023-04-24T08:41:52;15.85;;;3.25;;
43994;SDS011;51687;52.160;5.298;2023-04-24T08:44:19;13.68;;;3.72;;
43994;SDS011;51687;52.160;5.298;2023-04-24T08:46:49;15.75;;;3.75;;
43994;SDS011;51687;52.160;5.298;2023-04-24T08:49:17;10.57;;;3.17;;
43994;SDS011;51687;52.160;5.298;2023-04-24T08:51:45;20.13;;;3.25;;
43994;SDS011;51687;52.160;5.298;2023-04-24T08:54:14;9.68;;;2.70;;
43994;SDS011;51687;52.160;5.298;2023-04-24T08:56:43;10.07;;;3.10;;
43994;SDS011;51687;52.160;5.298;2023-04-24T08:59:11;14.45;;;3.65;;
43994;SDS011;51687;52.160;5.298;2023-04-24T09:01:39;10.40;;;2.72;;
43994;SDS011;51687;52.160;5.298;2023-04-24T09:04:07;12.45;;;2.65;;
43994;SDS011;51687;52.160;5.298;2023-04-24T09:06:41;10.02;;;2.70;;
43994;SDS011;51687;52.160;5.298;2023-04-24T09:09:08;11.43;;;2.97;;
43994;SDS011;51687;52.160;5.298;2023-04-24T09:11:37;11.23;;;3.47;;
43994;SDS011;51687;52.160;5.298;2023-04-24T09:14:05;13.20;;;3.47;;
43994;SDS011;51687;52.160;5.298;2023-04-24T09:16:33;15.43;;;4.47;;
43994;SDS011;51687;52.160;5.298;2023-04-24T09:19:02;9.48;;;2.60;;
43994;SDS011;51687;52.160;5.298;2023-04-24T09:21:32;10.10;;;3.28;;
43994;SDS011;51687;52.160;5.298;2023-04-24T09:24:01;21.98;;;4.20;;
43994;SDS011;51687;52.160;5.298;2023-04-24T09:26:30;9.15;;;3.45;;
43994;SDS011;51687;52.160;5.298;2023-04-24T09:28:59;7.57;;;2.55;;
43994;SDS011;51687;52.160;5.298;2023-04-24T09:31:28;9.43;;;2.95;;
43994;SDS011;51687;52.160;5.298;2023-04-24T09:33:59;14.00;;;2.97;;
43994;SDS011;51687;52.160;5.298;2023-04-24T09:36:30;10.88;;;3.13;;
43994;SDS011;51687;52.160;5.298;2023-04-24T09:39:00;12.88;;;3.20;;
43994;SDS011;51687;52.160;5.298;2023-04-24T09:41:28;9.93;;;2.83;;
43994;SDS011;51687;52.160;5.298;2023-04-24T09:43:56;13.30;;;3.20;;
43994;SDS011;51687;52.160;5.298;2023-04-24T09:46:30;7.70;;;2.30;;
43994;SDS011;51687;52.160;5.298;2023-04-24T09:48:58;11.82;;;2.83;;
43994;SDS011;51687;52.160;5.298;2023-04-24T09:51:35;10.82;;;3.25;;
43994;SDS011;51687;52.160;5.298;2023-04-24T09:54:20;8.05;;;2.33;;
43994;SDS011;51687;52.160;5.298;2023-04-24T09:56:50;7.05;;;2.60;;
43994;SDS011;51687;52.160;5.298;2023-04-24T09:59:18;6.45;;;2.70;;
43994;SDS011;51687;52.160;5.298;2023-04-24T10:01:46;5.95;;;2.28;;
43994;SDS011;51687;52.160;5.298;2023-04-24T10:04:19;8.30;;;2.65;;
43994;SDS011;51687;52.160;5.298;2023-04-24T10:06:47;9.20;;;2.63;;
43994;SDS011;51687;52.160;5.298;2023-04-24T10:09:18;10.70;;;2.20;;
43994;SDS011;51687;52.160;5.298;2023-04-24T10:11:46;8.98;;;2.13;;
43994;SDS011;51687;52.160;5.298;2023-04-24T10:14:14;6.57;;;1.70;;
43994;SDS011;51687;52.160;5.298;2023-04-24T10:16:42;6.05;;;2.65;;
43994;SDS011;51687;52.160;5.298;2023-04-24T10:19:10;7.03;;;1.48;;
43994;SDS011;51687;52.160;5.298;2023-04-24T10:21:39;6.28;;;1.60;;
43994;SDS011;51687;52.160;5.298;2023-04-24T10:24:08;7.10;;;1.80;;
43994;SDS011;51687;52.160;5.298;2023-04-24T10:26:36;4.53;;;1.33;;
43994;SDS011;51687;52.160;5.298;2023-04-24T10:29:03;3.70;;;1.35;;
43994;SDS011;51687;52.160;5.298;2023-04-24T10:31:36;8.60;;;1.90;;
43994;SDS011;51687;52.160;5.298;2023-04-24T10:34:05;9.60;;;2.03;;
43994;SDS011;51687;52.160;5.298;2023-04-24T10:36:32;3.10;;;1.33;;
43994;SDS011;51687;52.160;5.298;2023-04-24T10:39:02;3.15;;;0.95;;
43994;SDS011;51687;52.160;5.298;2023-04-24T10:41:30;6.43;;;1.25;;
43994;SDS011;51687;52.160;5.298;2023-04-24T10:44:04;1.98;;;0.95;;
43994;SDS011;51687;52.160;5.298;2023-04-24T10:46:31;4.05;;;1.30;;
43994;SDS011;51687;52.160;5.298;2023-04-24T10:48:59;3.13;;;0.93;;
43994;SDS011;51687;52.160;5.298;2023-04-24T10:51:44;3.35;;;0.70;;
43994;SDS011;51687;52.160;5.298;2023-04-24T10:54:22;3.75;;;0.90;;
43994;SDS011;51687;52.160;5.298;2023-04-24T10:56:50;3.58;;;1.30;;
43994;SDS011;51687;52.160;5.298;2023-04-24T10:59:24;2.72;;;0.73;;
43994;SDS011;51687;52.160;5.298;2023-04-24T11:01:55;4.40;;;1.10;;
43994;SDS011;51687;52.160;5.298;2023-04-24T11:04:29;5.18;;;1.20;;
43994;SDS011;51687;52.160;5.298;2023-04-24T11:06:58;3.53;;;0.95;;
43994;SDS011;51687;52.160;5.298;2023-04-24T11:11:53;7.95;;;1.40;;
43994;SDS011;51687;52.160;5.298;2023-04-24T11:14:29;4.95;;;1.27;;
43994;SDS011;51687;52.160;5.298;2023-04-24T11:16:56;5.32;;;1.48;;
43994;SDS011;51687;52.160;5.298;2023-04-24T11:19:24;5.75;;;1.77;;
43994;SDS011;51687;52.160;5.298;2023-04-24T11:21:59;6.05;;;1.30;;
43994;SDS011;51687;52.160;5.298;2023-04-24T11:29:40;3.75;;;0.80;;
43994;SDS011;51687;52.160;5.298;2023-04-24T11:32:25;3.80;;;1.05;;
43994;SDS011;51687;52.160;5.298;2023-04-24T11:34:54;4.68;;;0.77;;
43994;SDS011;51687;52.160;5.298;2023-04-24T11:37:23;1.73;;;0.60;;
43994;SDS011;51687;52.160;5.298;2023-04-24T11:39:51;2.38;;;0.60;;
43994;SDS011;51687;52.160;5.298;2023-04-24T11:42:19;1.90;;;0.60;;
43994;SDS011;51687;52.160;5.298;2023-04-24T11:44:46;1.50;;;0.50;;
43994;SDS011;51687;52.160;5.298;2023-04-24T11:47:14;2.10;;;0.50;;
43994;SDS011;51687;52.160;5.298;2023-04-24T11:49:42;2.22;;;0.52;;
43994;SDS011;51687;52.160;5.298;2023-04-24T11:52:09;3.15;;;0.70;;
43994;SDS011;51687;52.160;5.298;2023-04-24T11:54:36;3.17;;;0.70;;
43994;SDS011;51687;52.160;5.298;2023-04-24T11:57:04;1.40;;;0.45;;
43994;SDS011;51687;52.160;5.298;2023-04-24T11:59:36;2.50;;;0.55;;
43994;SDS011;51687;52.160;5.298;2023-04-24T12:02:04;1.73;;;0.60;;
43994;SDS011;51687;52.160;5.298;2023-04-24T12:04:39;2.40;;;0.75;;
43994;SDS011;51687;52.160;5.298;2023-04-24T12:07:08;4.57;;;1.05;;
43994;SDS011;51687;52.160;5.298;2023-04-24T12:09:45;2.50;;;0.75;;
43994;SDS011;51687;52.160;5.298;2023-04-24T12:12:16;7.45;;;1.02;;
43994;SDS011;51687;52.160;5.298;2023-04-24T12:14:52;5.13;;;1.23;;
43994;SDS011;51687;52.160;5.298;2023-04-24T12:17:26;5.25;;;1.17;;
43994;SDS011;51687;52.160;5.298;2023-04-24T12:20:01;4.97;;;1.38;;
43994;SDS011;51687;52.160;5.298;2023-04-24T12:22:45;5.05;;;1.08;;
43994;SDS011;51687;52.160;5.298;2023-04-24T12:25:13;4.68;;;1.00;;
43994;SDS011;51687;52.160;5.298;2023-04-24T12:27:41;4.40;;;1.25;;
43994;SDS011;51687;52.160;5.298;2023-04-24T12:30:13;3.20;;;1.17;;
43994;SDS011;51687;52.160;5.298;2023-04-24T12:32:50;3.25;;;1.02;;
43994;SDS011;51687;52.160;5.298;2023-04-24T12:35:22;7.82;;;2.75;;
43994;SDS011;51687;52.160;5.298;2023-04-24T12:37:50;9.15;;;1.42;;
43994;SDS011;51687;52.160;5.298;2023-04-24T12:40:17;5.85;;;1.30;;
43994;SDS011;51687;52.160;5.298;2023-04-24T12:42:46;9.80;;;1.63;;
43994;SDS011;51687;52.160;5.298;2023-04-24T12:45:15;7.93;;;1.58;;
43994;SDS011;51687;52.160;5.298;2023-04-24T12:47:43;7.70;;;1.85;;
43994;SDS011;51687;52.160;5.298;2023-04-24T12:50:11;5.75;;;1.52;;
43994;SDS011;51687;52.160;5.298;2023-04-24T12:52:39;10.00;;;2.25;;
43994;SDS011;51687;52.160;5.298;2023-04-24T12:55:07;8.57;;;2.08;;
43994;SDS011;51687;52.160;5.298;2023-04-24T12:57:36;8.98;;;2.30;;
43994;SDS011;51687;52.160;5.298;2023-04-24T13:00:04;11.32;;;2.92;;
43994;SDS011;51687;52.160;5.298;2023-04-24T13:02:32;7.95;;;2.55;;
43994;SDS011;51687;52.160;5.298;2023-04-24T13:05:00;14.27;;;2.40;;
43994;SDS011;51687;52.160;5.298;2023-04-24T13:07:28;6.20;;;2.03;;
43994;SDS011;51687;52.160;5.298;2023-04-24T13:09:55;13.63;;;3.10;;
43994;SDS011;51687;52.160;5.298;2023-04-24T13:12:23;11.88;;;3.00;;
43994;SDS011;51687;52.160;5.298;2023-04-24T13:14:51;13.45;;;2.95;;
43994;SDS011;51687;52.160;5.298;2023-04-24T13:17:19;7.85;;;2.42;;
43994;SDS011;51687;52.160;5.298;2023-04-24T13:19:49;12.50;;;2.78;;
43994;SDS011;51687;52.160;5.298;2023-04-24T13:22:16;13.20;;;3.05;;
43994;SDS011;51687;52.160;5.298;2023-04-24T13:24:45;6.30;;;2.50;;
43994;SDS011;51687;52.160;5.298;2023-04-24T13:27:15;11.63;;;3.10;;
43994;SDS011;51687;52.160;5.298;2023-04-24T13:29:42;10.13;;;2.90;;
43994;SDS011;51687;52.160;5.298;2023-04-24T13:32:10;7.82;;;2.67;;
43994;SDS011;51687;52.160;5.298;2023-04-24T13:34:37;13.30;;;3.03;;
43994;SDS011;51687;52.160;5.298;2023-04-24T13:37:05;8.80;;;2.90;;
43994;SDS011;51687;52.160;5.298;2023-04-24T13:39:32;10.43;;;3.10;;
43994;SDS011;51687;52.160;5.298;2023-04-24T13:41:59;11.45;;;3.08;;
43994;SDS011;51687;52.160;5.298;2023-04-24T13:44:29;8.18;;;3.80;;
43994;SDS011;51687;52.160;5.298;2023-04-24T13:46:57;15.13;;;4.32;;
43994;SDS011;51687;52.160;5.298;2023-04-24T13:49:25;8.87;;;3.07;;
43994;SDS011;51687;52.160;5.298;2023-04-24T13:51:53;8.00;;;2.77;;
43994;SDS011;51687;52.160;5.298;2023-04-24T13:54:21;10.85;;;2.88;;
43994;SDS011;51687;52.160;5.298;2023-04-24T13:56:49;7.15;;;2.78;;
43994;SDS011;51687;52.160;5.298;2023-04-24T13:59:16;14.13;;;3.33;;
43994;SDS011;51687;52.160;5.298;2023-04-24T14:01:44;10.30;;;3.38;;
43994;SDS011;51687;52.160;5.298;2023-04-24T14:04:11;9.38;;;3.08;;
43994;SDS011;51687;52.160;5.298;2023-04-24T14:06:38;9.52;;;3.28;;
43994;SDS011;51687;52.160;5.298;2023-04-24T14:09:06;10.48;;;3.08;;
43994;SDS011;51687;52.160;5.298;2023-04-24T14:11:33;9.30;;;2.95;;
43994;SDS011;51687;52.160;5.298;2023-04-24T14:14:01;8.98;;;3.45;;
43994;SDS011;51687;52.160;5.298;2023-04-24T14:16:28;9.95;;;2.80;;
43994;SDS011;51687;52.160;5.298;2023-04-24T14:18:56;10.65;;;3.63;;
43994;SDS011;51687;52.160;5.298;2023-04-24T14:21:23;12.10;;;3.95;;
43994;SDS011;51687;52.160;5.298;2023-04-24T14:23:51;10.40;;;3.05;;
43994;SDS011;51687;52.160;5.298;2023-04-24T14:26:19;11.55;;;3.33;;
43994;SDS011;51687;52.160;5.298;2023-04-24T14:28:46;11.05;;;3.63;;
43994;SDS011;51687;52.160;5.298;2023-04-24T14:31:13;9.73;;;3.40;;
43994;SDS011;51687;52.160;5.298;2023-04-24T14:33:40;10.07;;;3.38;;
43994;SDS011;51687;52.160;5.298;2023-04-24T14:36:08;18.02;;;3.30;;
43994;SDS011;51687;52.160;5.298;2023-04-24T14:38:35;9.50;;;3.42;;
43994;SDS011;51687;52.160;5.298;2023-04-24T14:41:02;10.43;;;3.47;;
43994;SDS011;51687;52.160;5.298;2023-04-24T14:43:42;10.95;;;3.28;;
43994;SDS011;51687;52.160;5.298;2023-04-24T14:46:09;7.32;;;3.08;;
43994;SDS011;51687;52.160;5.298;2023-04-24T14:48:37;12.25;;;3.72;;
43994;SDS011;51687;52.160;5.298;2023-04-24T14:51:03;15.43;;;3.80;;
43994;SDS011;51687;52.160;5.298;2023-04-24T14:53:30;17.02;;;3.88;;
43994;SDS011;51687;52.160;5.298;2023-04-24T14:55:57;15.07;;;3.35;;
43994;SDS011;51687;52.160;5.298;2023-04-24T14:58:24;8.70;;;3.10;;